Time;durP1;ratioP1;P1;durP2;ratioP2;P2;SDS_P1;SDS_P2;PMS_P1;PMS_P2;Temp;Humidity;BMP_temperature;BMP_pressure;BME280_temperature;BME280_humidity;BME280_pressure;Samples;Min_cycle;Max_cycle;Signal;HPM_P1;HPM_P2
2023/06/27 00:01:48;;;;;;;;;;;29.50;49.10;;;;;;5107221;27;43354;-89
2023/06/27 00:04:13;;;;;;;;;;;29.50;49.10;;;;;;5106943;27;42967;-89
2023/06/27 00:06:41;;;;;;;;;;;29.50;49.10;;;;;;5092943;27;42970;-94
2023/06/27 00:09:09;;;;;;;;;;;29.50;49.00;;;;;;5107479;27;43423;-88
2023/06/27 00:11:35;;;;;;;;;;;29.50;49.00;;;;;;5105215;27;42993;-88
2023/06/27 00:14:04;;;;;;;;;;;29.50;49.00;;;;;;5106489;27;43387;-89
2023/06/27 00:16:32;;;;;;;;;;;29.50;49.20;;;;;;5106644;27;43047;-88
2023/06/27 00:19:03;;;;;;;;;;;29.50;49.20;;;;;;5106391;27;43088;-88
2023/06/27 00:21:32;;;;;;;;;;;29.50;49.20;;;;;;5106735;27;43902;-88
2023/06/27 00:23:58;;;;;;;;;;;29.50;49.20;;;;;;5100610;27;43202;-89
2023/06/27 00:26:24;;;;;;;;;;;29.50;49.30;;;;;;5105986;27;42836;-88
2023/06/27 00:28:50;;;;;;;;;;;29.50;49.30;;;;;;5104162;27;42913;-88
2023/06/27 00:31:16;;;;;;;;;;;29.50;49.40;;;;;;5104352;27;43427;-92
2023/06/27 00:33:41;;;;;;;;;;;29.40;49.30;;;;;;5138636;27;42996;-89
2023/06/27 00:36:07;;;;;;;;;;;29.40;49.40;;;;;;5104801;27;44612;-90
2023/06/27 00:38:33;;;;;;;;;;;29.50;49.50;;;;;;5105309;27;43032;-89
2023/06/27 00:40:58;;;;;;;;;;;29.40;49.40;;;;;;5103178;27;45083;-91
2023/06/27 00:43:24;;;;;;;;;;;29.40;49.50;;;;;;5104445;27;42937;-89
2023/06/27 00:45:50;;;;;;;;;;;29.40;49.60;;;;;;5105450;27;43625;-89
2023/06/27 00:48:15;;;;;;;;;;;29.40;49.70;;;;;;5105489;27;43012;-89
2023/06/27 00:50:42;;;;;;;;;;;29.40;49.60;;;;;;5104816;27;44713;-89
2023/06/27 00:53:07;;;;;;;;;;;29.40;49.60;;;;;;5105408;27;43190;-92
2023/06/27 00:55:33;;;;;;;;;;;29.40;49.70;;;;;;5104894;27;44286;-89
2023/06/27 00:57:59;;;;;;;;;;;29.40;49.70;;;;;;5104599;27;42767;-89
2023/06/27 01:00:25;;;;;;;;;;;29.40;49.70;;;;;;5106452;27;43230;-91
2023/06/27 01:02:50;;;;;;;;;;;29.50;49.80;;;;;;5105920;27;42975;-91
2023/06/27 01:05:17;;;;;;;;;;;29.50;49.80;;;;;;5105183;27;42905;-89
2023/06/27 01:07:49;;;;;;;;;;;29.40;49.80;;;;;;5106386;27;43087;-92
2023/06/27 01:10:24;;;;;;;;;;;29.50;50.00;;;;;;5104610;27;43088;-89
2023/06/27 01:12:58;;;;;;;;;;;29.50;50.10;;;;;;5105715;27;42773;-89
2023/06/27 01:15:25;;;;;;;;;;;29.40;50.20;;;;;;5104705;27;43615;-89
2023/06/27 01:17:50;;;;;;;;;;;29.40;50.10;;;;;;5106261;27;42817;-89
2023/06/27 01:20:18;;;;;;;;;;;29.40;50.10;;;;;;5105511;27;43493;-90
2023/06/27 01:22:56;;;;;;;;;;;29.40;50.20;;;;;;5105296;27;42994;-89
2023/06/27 01:25:22;;;;;;;;;;;29.40;50.00;;;;;;5094350;27;43577;-87
2023/06/27 01:27:47;;;;;;;;;;;29.40;50.00;;;;;;5103941;27;42922;-92
2023/06/27 01:30:17;;;;;;;;;;;29.40;50.00;;;;;;5103983;27;44084;-89
2023/06/27 01:32:49;;;;;;;;;;;29.40;50.00;;;;;;5103187;27;42832;-89
2023/06/27 01:35:31;;;;;;;;;;;29.40;50.00;;;;;;5105291;27;43540;-89
2023/06/27 01:37:59;;;;;;;;;;;29.40;50.10;;;;;;5105749;27;42811;-91
2023/06/27 01:40:28;;;;;;;;;;;29.40;50.10;;;;;;5104581;27;43960;-88
2023/06/27 01:42:56;;;;;;;;;;;29.30;50.10;;;;;;5104664;27;43527;-90
2023/06/27 01:45:22;;;;;;;;;;;29.30;50.00;;;;;;5103317;27;44720;-94
2023/06/27 01:47:48;;;;;;;;;;;29.30;50.00;;;;;;5104334;27;42981;-88
2023/06/27 01:50:13;;;;;;;;;;;29.30;49.90;;;;;;5137581;27;44616;-88
2023/06/27 01:52:41;;;;;;;;;;;29.30;49.90;;;;;;5101957;27;60846;-88
2023/06/27 01:55:07;;;;;;;;;;;29.40;50.00;;;;;;5104929;27;43059;-89
2023/06/27 01:57:33;;;;;;;;;;;29.40;49.90;;;;;;5103777;27;43055;-89
2023/06/27 01:59:58;;;;;;;;;;;29.40;50.00;;;;;;5105167;27;42901;-93
2023/06/27 02:02:26;;;;;;;;;;;29.40;50.00;;;;;;5105332;27;43110;-92
2023/06/27 02:04:52;;;;;;;;;;;29.40;50.00;;;;;;5104876;27;44036;-94
2023/06/27 02:07:18;;;;;;;;;;;29.40;50.00;;;;;;5091558;27;42952;-88
2023/06/27 02:09:43;;;;;;;;;;;29.40;49.90;;;;;;5105398;27;43743;-94
2023/06/27 02:12:09;;;;;;;;;;;29.40;49.90;;;;;;5103952;27;42912;-89
2023/06/27 02:14:34;;;;;;;;;;;29.30;49.90;;;;;;5102898;27;44790;-89
2023/06/27 02:17:00;;;;;;;;;;;29.40;50.00;;;;;;5105066;27;42746;-93
2023/06/27 02:19:26;;;;;;;;;;;29.30;50.00;;;;;;5105145;27;43150;-89
2023/06/27 02:21:51;;;;;;;;;;;29.30;50.10;;;;;;5103845;27;44108;-90
2023/06/27 02:24:16;;;;;;;;;;;29.30;50.10;;;;;;5105386;27;43715;-90
2023/06/27 02:26:43;;;;;;;;;;;29.30;50.10;;;;;;5104975;27;42853;-91
2023/06/27 02:29:11;;;;;;;;;;;29.30;50.10;;;;;;5105251;27;42943;-89
2023/06/27 02:31:37;;;;;;;;;;;29.30;50.10;;;;;;5102801;27;43038;-89
2023/06/27 02:34:02;;;;;;;;;;;29.30;50.10;;;;;;5103003;27;45651;-92
2023/06/27 02:36:28;;;;;;;;;;;29.30;50.10;;;;;;5104343;27;43047;-90
2023/06/27 02:38:56;;;;;;;;;;;29.30;50.00;;;;;;5104149;27;42817;-88
2023/06/27 02:41:22;;;;;;;;;;;29.30;50.00;;;;;;5104400;27;43027;-90
2023/06/27 02:43:48;;;;;;;;;;;29.30;50.00;;;;;;5103772;27;43619;-88
2023/06/27 02:46:13;;;;;;;;;;;29.30;49.90;;;;;;5089142;27;43173;-87
2023/06/27 02:48:39;;;;;;;;;;;29.30;49.90;;;;;;5104327;27;43074;-90
2023/06/27 02:51:04;;;;;;;;;;;29.30;49.90;;;;;;5104290;27;43344;-92
2023/06/27 02:53:30;;;;;;;;;;;29.30;49.90;;;;;;5104636;27;42882;-93
2023/06/27 02:55:57;;;;;;;;;;;29.30;49.90;;;;;;5104233;27;42969;-89
2023/06/27 02:58:23;;;;;;;;;;;29.30;49.90;;;;;;5101926;27;44255;-89
2023/06/27 03:00:49;;;;;;;;;;;29.30;49.80;;;;;;5104337;27;42936;-89
2023/06/27 03:03:14;;;;;;;;;;;29.30;49.80;;;;;;5104430;27;42855;-90
2023/06/27 03:05:40;;;;;;;;;;;29.20;49.80;;;;;;5091043;27;42982;-89
2023/06/27 03:08:05;;;;;;;;;;;29.30;49.80;;;;;;5104878;27;42994;-88
2023/06/27 03:10:31;;;;;;;;;;;29.30;49.80;;;;;;5104763;27;42892;-89
2023/06/27 03:12:56;;;;;;;;;;;29.20;49.80;;;;;;5101806;27;43683;-92
2023/06/27 03:15:22;;;;;;;;;;;29.30;49.90;;;;;;5103919;27;42903;-89
2023/06/27 03:17:47;;;;;;;;;;;29.20;49.80;;;;;;5104478;27;43011;-89
2023/06/27 03:20:13;;;;;;;;;;;29.30;49.90;;;;;;5104230;27;42903;-88
2023/06/27 03:22:38;;;;;;;;;;;29.20;49.80;;;;;;5104518;27;43470;-89
2023/06/27 03:25:04;;;;;;;;;;;29.30;49.80;;;;;;5103644;27;42995;-88
2023/06/27 03:27:30;;;;;;;;;;;29.30;49.80;;;;;;5103771;27;43927;-89
2023/06/27 03:29:56;;;;;;;;;;;29.30;49.80;;;;;;5106897;27;43388;-89
2023/06/27 03:32:21;;;;;;;;;;;29.20;49.70;;;;;;5105436;27;43250;-89
2023/06/27 03:34:47;;;;;;;;;;;29.30;50.00;;;;;;5105841;27;42985;-89
2023/06/27 03:37:12;;;;;;;;;;;29.20;49.80;;;;;;5107802;27;43044;-91
2023/06/27 03:39:38;;;;;;;;;;;29.30;49.90;;;;;;5093744;27;42966;-89
2023/06/27 03:42:04;;;;;;;;;;;29.20;49.90;;;;;;5107056;27;42775;-90
2023/06/27 03:44:31;;;;;;;;;;;29.30;49.90;;;;;;5107387;27;42892;-89
2023/06/27 03:46:56;;;;;;;;;;;29.20;49.90;;;;;;5107092;27;43629;-89
2023/06/27 03:49:22;;;;;;;;;;;29.20;49.80;;;;;;5107706;27;43014;-89
2023/06/27 03:51:48;;;;;;;;;;;29.20;49.80;;;;;;5106900;27;42933;-89
2023/06/27 03:54:13;;;;;;;;;;;29.20;49.80;;;;;;5102410;27;42933;-91
2023/06/27 03:56:39;;;;;;;;;;;29.20;49.90;;;;;;5097835;27;43003;-93
2023/06/27 03:59:04;;;;;;;;;;;29.20;49.90;;;;;;5094062;27;42937;-89
2023/06/27 04:01:30;;;;;;;;;;;29.20;49.90;;;;;;5105608;27;43041;-89
2023/06/27 04:03:55;;;;;;;;;;;29.10;49.80;;;;;;5105951;27;43023;-90
2023/06/27 04:06:21;;;;;;;;;;;29.20;49.90;;;;;;5107187;27;43560;-90
2023/06/27 04:08:47;;;;;;;;;;;29.10;49.80;;;;;;5106657;27;43363;-93
2023/06/27 04:11:12;;;;;;;;;;;29.20;49.80;;;;;;5106958;27;42949;-89
2023/06/27 04:13:38;;;;;;;;;;;29.20;49.90;;;;;;5106635;27;42964;-90
2023/06/27 04:16:04;;;;;;;;;;;29.20;49.90;;;;;;5106335;27;43630;-90
2023/06/27 04:18:30;;;;;;;;;;;29.20;50.00;;;;;;5106779;27;42934;-91
2023/06/27 04:20:55;;;;;;;;;;;29.20;50.00;;;;;;5107368;27;43779;-91
2023/06/27 04:23:21;;;;;;;;;;;29.20;50.00;;;;;;5106499;27;42905;-81
2023/06/27 04:25:59;;;;;;;;;;;29.10;50.00;;;;;;5106240;27;43452;-81
2023/06/27 04:28:24;;;;;;;;;;;29.10;50.00;;;;;;5105415;27;43308;-81
2023/06/27 04:30:50;;;;;;;;;;;29.10;50.60;;;;;;5105900;27;43748;-81
2023/06/27 04:33:15;;;;;;;;;;;29.20;50.10;;;;;;5105047;27;43011;-81
2023/06/27 04:35:41;;;;;;;;;;;29.20;50.60;;;;;;5106694;27;43005;-81
2023/06/27 04:38:08;;;;;;;;;;;29.10;50.00;;;;;;5106018;27;42941;-81
2023/06/27 04:40:34;;;;;;;;;;;29.10;50.50;;;;;;5097634;27;43520;-82
2023/06/27 04:42:59;;;;;;;;;;;29.20;50.60;;;;;;5101982;27;43215;-81
2023/06/27 04:45:25;;;;;;;;;;;29.10;50.60;;;;;;5095953;27;43164;-80
2023/06/27 04:47:50;;;;;;;;;;;29.10;50.70;;;;;;5096041;27;43053;-80
2023/06/27 04:50:19;;;;;;;;;;;29.10;50.70;;;;;;5104330;27;43816;-80
2023/06/27 04:52:44;;;;;;;;;;;29.10;50.70;;;;;;5101619;27;43189;-81
2023/06/27 04:55:10;;;;;;;;;;;29.10;50.20;;;;;;5104060;27;43826;-80
2023/06/27 04:57:36;;;;;;;;;;;29.10;50.70;;;;;;5106895;27;42878;-80
2023/06/27 05:00:04;;;;;;;;;;;29.10;50.30;;;;;;5097343;27;45850;-80
2023/06/27 05:02:30;;;;;;;;;;;29.10;50.30;;;;;;5094705;27;43565;-79
2023/06/27 05:04:55;;;;;;;;;;;29.10;50.90;;;;;;5104061;27;43501;-79
2023/06/27 05:07:21;;;;;;;;;;;29.00;50.40;;;;;;5094310;27;43439;-79
2023/06/27 05:09:46;;;;;;;;;;;29.00;50.50;;;;;;5104758;27;43573;-80
2023/06/27 05:12:12;;;;;;;;;;;29.10;50.70;;;;;;5101047;27;43175;-79
2023/06/27 05:14:37;;;;;;;;;;;29.10;51.10;;;;;;5093884;27;43018;-79
2023/06/27 05:17:03;;;;;;;;;;;29.00;51.10;;;;;;5105689;27;42956;-78
2023/06/27 05:19:29;;;;;;;;;;;29.10;50.80;;;;;;5103874;27;44309;-79
2023/06/27 05:21:54;;;;;;;;;;;29.00;51.30;;;;;;5103914;27;43220;-80
2023/06/27 05:24:20;;;;;;;;;;;29.10;51.40;;;;;;5106127;27;42955;-80
2023/06/27 05:26:45;;;;;;;;;;;29.10;51.40;;;;;;5106103;27;43079;-81
2023/06/27 05:29:11;;;;;;;;;;;29.00;51.30;;;;;;5097464;27;43022;-81
2023/06/27 05:31:36;;;;;;;;;;;29.10;51.40;;;;;;5096143;27;43071;-79
2023/06/27 05:34:02;;;;;;;;;;;29.00;51.30;;;;;;5088403;27;42782;-80
2023/06/27 05:36:27;;;;;;;;;;;29.10;51.40;;;;;;5102591;27;42902;-82
2023/06/27 05:38:53;;;;;;;;;;;29.10;51.40;;;;;;5100054;27;42908;-80
2023/06/27 05:41:18;;;;;;;;;;;29.00;50.80;;;;;;5104077;27;43105;-82
2023/06/27 05:43:46;;;;;;;;;;;29.00;51.30;;;;;;5106030;27;42872;-81
2023/06/27 05:46:12;;;;;;;;;;;29.10;51.30;;;;;;5101622;27;43067;-80
2023/06/27 05:48:38;;;;;;;;;;;29.10;50.90;;;;;;5094514;27;42913;-81
2023/06/27 05:51:03;;;;;;;;;;;29.10;51.40;;;;;;5089607;27;43055;-81
2023/06/27 05:53:29;;;;;;;;;;;29.10;50.90;;;;;;5102854;27;45291;-81
2023/06/27 05:55:54;;;;;;;;;;;29.00;50.90;;;;;;5105897;27;42999;-81
2023/06/27 05:58:19;;;;;;;;;;;29.00;51.30;;;;;;5105726;27;43645;-80
2023/06/27 06:00:45;;;;;;;;;;;29.10;50.90;;;;;;5105519;27;43017;-81
2023/06/27 06:03:10;;;;;;;;;;;29.10;51.00;;;;;;5104205;27;44821;-80
2023/06/27 06:05:36;;;;;;;;;;;29.00;50.90;;;;;;5104704;27;43043;-80
2023/06/27 06:08:01;;;;;;;;;;;29.10;51.50;;;;;;5105397;27;43813;-81
2023/06/27 06:10:27;;;;;;;;;;;29.10;51.50;;;;;;5096759;27;43190;-81
2023/06/27 06:12:52;;;;;;;;;;;29.10;50.90;;;;;;5092288;27;43484;-80
2023/06/27 06:15:18;;;;;;;;;;;29.10;50.90;;;;;;5091475;27;42898;-80
2023/06/27 06:17:43;;;;;;;;;;;29.10;50.60;;;;;;5104778;27;42978;-83
2023/06/27 06:20:10;;;;;;;;;;;29.10;50.40;;;;;;5104205;27;42951;-84
2023/06/27 06:22:36;;;;;;;;;;;29.10;50.90;;;;;;5102126;27;43511;-85
2023/06/27 06:25:02;;;;;;;;;;;29.10;50.30;;;;;;5097402;27;42892;-85
2023/06/27 06:27:28;;;;;;;;;;;29.10;50.20;;;;;;5128315;27;44619;-84
2023/06/27 06:29:54;;;;;;;;;;;29.10;50.20;;;;;;5103753;27;43024;-87
2023/06/27 06:32:19;;;;;;;;;;;29.10;50.10;;;;;;5104617;27;43750;-88
2023/06/27 06:35:23;;;;;;;;;;;29.10;50.10;;;;;;5105021;27;42963;-89
2023/06/27 06:37:51;;;;;;;;;;;29.10;50.00;;;;;;5081582;28;43071;-88
2023/06/27 06:40:21;;;;;;;;;;;29.10;50.00;;;;;;5090821;27;42995;-87
2023/06/27 06:42:47;;;;;;;;;;;;;;;;;;5100545;27;43730;-89
2023/06/27 06:45:25;;;;;;;;;;;29.10;49.90;;;;;;5100037;27;43220;-86
2023/06/27 06:47:52;;;;;;;;;;;29.10;50.00;;;;;;5121748;27;43886;-87
2023/06/27 06:50:20;;;;;;;;;;;29.10;50.00;;;;;;5096868;27;43051;-87
2023/06/27 06:52:45;;;;;;;;;;;29.10;50.00;;;;;;5095754;27;43544;-87
2023/06/27 06:55:14;;;;;;;;;;;29.10;50.00;;;;;;5085485;27;43158;-89
2023/06/27 06:57:41;;;;;;;;;;;29.10;49.90;;;;;;5099407;27;43348;-87
2023/06/27 07:00:07;;;;;;;;;;;29.10;49.80;;;;;;5104783;27;42799;-89
2023/06/27 07:02:33;;;;;;;;;;;29.10;49.70;;;;;;5104065;27;43759;-91
2023/06/27 07:04:58;;;;;;;;;;;29.10;49.80;;;;;;5097867;27;44304;-91
2023/06/27 07:07:24;;;;;;;;;;;29.10;49.80;;;;;;5111080;27;43057;-84
2023/06/27 07:09:49;;;;;;;;;;;29.10;49.40;;;;;;5101792;27;43021;-85
2023/06/27 07:12:15;;;;;;;;;;;29.10;49.20;;;;;;5108813;27;43604;-85
2023/06/27 07:14:40;;;;;;;;;;;29.10;49.10;;;;;;5106789;27;43133;-86
2023/06/27 07:17:06;;;;;;;;;;;29.00;49.70;;;;;;5103643;27;43075;-84
2023/06/27 07:19:31;;;;;;;;;;;29.00;49.10;;;;;;5112428;27;43229;-83
2023/06/27 07:21:57;;;;;;;;;;;29.00;49.00;;;;;;5098808;27;43523;-84
2023/06/27 07:24:22;;;;;;;;;;;29.00;48.80;;;;;;5105016;27;43010;-82
2023/06/27 07:26:48;;;;;;;;;;;29.00;48.90;;;;;;5106961;27;43593;-88
2023/06/27 07:29:14;;;;;;;;;;;29.00;48.80;;;;;;5098991;27;43075;-86
2023/06/27 07:31:39;;;;;;;;;;;29.00;48.90;;;;;;5112636;27;43535;-89
2023/06/27 07:34:05;;;;;;;;;;;29.00;48.90;;;;;;5111049;27;42974;-82
2023/06/27 07:36:30;;;;;;;;;;;29.00;48.90;;;;;;5100171;27;42993;-89
2023/06/27 07:38:58;;;;;;;;;;;29.00;49.00;;;;;;5100294;27;42972;-88
2023/06/27 07:41:24;;;;;;;;;;;29.00;49.00;;;;;;5094371;27;43136;-89
2023/06/27 07:43:50;;;;;;;;;;;29.00;49.50;;;;;;5105615;27;42868;-84
2023/06/27 07:46:15;;;;;;;;;;;29.00;49.50;;;;;;5102800;27;44332;-88
2023/06/27 07:48:41;;;;;;;;;;;29.00;49.20;;;;;;5099279;27;43008;-89
2023/06/27 07:51:06;;;;;;;;;;;29.10;49.40;;;;;;5105356;27;43614;-90
2023/06/27 07:53:32;;;;;;;;;;;29.00;49.30;;;;;;5106887;27;43010;-86
2023/06/27 07:55:57;;;;;;;;;;;29.00;49.60;;;;;;5105011;27;44392;-86
2023/06/27 07:58:23;;;;;;;;;;;29.10;49.60;;;;;;5103303;27;43065;-86
2023/06/27 08:00:49;;;;;;;;;;;29.10;49.60;;;;;;5106749;27;43562;-82
2023/06/27 08:03:15;;;;;;;;;;;29.10;49.60;;;;;;5104090;27;42940;-84
2023/06/27 08:05:40;;;;;;;;;;;29.00;49.70;;;;;;5089013;27;43005;-79
2023/06/27 08:08:08;;;;;;;;;;;29.10;49.70;;;;;;5092213;27;42938;-85
2023/06/27 08:10:34;;;;;;;;;;;29.10;49.70;;;;;;5105359;27;43075;-82
2023/06/27 08:12:59;;;;;;;;;;;29.10;49.80;;;;;;5097444;27;43214;-82
2023/06/27 08:15:25;;;;;;;;;;;29.10;49.80;;;;;;5104841;27;43516;-82
2023/06/27 08:17:51;;;;;;;;;;;;;;;;;;5095464;27;43055;-83
2023/06/27 08:20:18;;;;;;;;;;;29.10;49.80;;;;;;5099701;27;44046;-82
2023/06/27 08:22:44;;;;;;;;;;;29.10;50.10;;;;;;5104353;27;43020;-85
2023/06/27 08:25:10;;;;;;;;;;;29.10;50.00;;;;;;5105055;27;44050;-84
2023/06/27 08:27:35;;;;;;;;;;;29.10;50.10;;;;;;5107040;27;42962;-84
2023/06/27 08:30:01;;;;;;;;;;;29.10;50.10;;;;;;5103287;27;42995;-83
2023/06/27 08:32:26;;;;;;;;;;;29.10;50.20;;;;;;5096959;27;43171;-84
2023/06/27 08:34:52;;;;;;;;;;;29.10;50.20;;;;;;5098446;27;43461;-83
2023/06/27 08:37:17;;;;;;;;;;;29.10;50.10;;;;;;5097619;27;43003;-83
2023/06/27 08:39:43;;;;;;;;;;;29.10;50.10;;;;;;5106100;27;43607;-82
2023/06/27 08:42:08;;;;;;;;;;;25.80;48.00;;;;;;5106502;27;42770;-81
2023/06/27 08:44:34;;;;;;;;;;;29.10;50.20;;;;;;5098426;27;42915;-81
2023/06/27 08:47:02;;;;;;;;;;;29.10;50.20;;;;;;5094446;27;42924;-79
2023/06/27 08:49:30;;;;;;;;;;;29.10;50.30;;;;;;5097555;27;43566;-80
2023/06/27 08:51:56;;;;;;;;;;;29.10;50.30;;;;;;5097547;27;42949;-81
2023/06/27 08:54:25;;;;;;;;;;;29.10;50.40;;;;;;5098334;27;42867;-81
2023/06/27 08:56:52;;;;;;;;;;;29.10;50.50;;;;;;5099650;27;42877;-79
2023/06/27 08:59:19;;;;;;;;;;;29.10;50.50;;;;;;5086652;27;42949;-79
2023/06/27 09:01:46;;;;;;;;;;;29.10;50.70;;;;;;5099006;27;43071;-81
2023/06/27 09:04:12;;;;;;;;;;;29.10;51.10;;;;;;5105408;27;42956;-81
2023/06/27 09:06:39;;;;;;;;;;;29.10;51.20;;;;;;5099590;27;42941;-80
2023/06/27 09:09:05;;;;;;;;;;;29.10;51.60;;;;;;5100198;27;42952;-80
2023/06/27 09:11:30;;;;;;;;;;;29.10;51.00;;;;;;5096914;27;42973;-79
2023/06/27 09:13:56;;;;;;;;;;;29.10;51.50;;;;;;5096903;27;43901;-80
2023/06/27 09:16:21;;;;;;;;;;;29.10;51.20;;;;;;5104195;27;43138;-80
2023/06/27 09:18:47;;;;;;;;;;;29.10;51.10;;;;;;5102773;27;42920;-79
2023/06/27 09:21:16;;;;;;;;;;;29.20;51.00;;;;;;5087564;27;43165;-79
2023/06/27 09:23:42;;;;;;;;;;;29.20;51.00;;;;;;5098460;27;44575;-79
2023/06/27 09:26:17;;;;;;;;;;;29.10;51.40;;;;;;5097776;27;42851;-79
2023/06/27 09:28:46;;;;;;;;;;;31.80;53.50;;;;;;5102781;27;43862;-79
2023/06/27 09:31:15;;;;;;;;;;;29.10;51.80;;;;;;5090465;27;42933;-79
2023/06/27 09:33:44;;;;;;;;;;;29.20;51.80;;;;;;5104793;27;42949;-80
2023/06/27 09:36:10;;;;;;;;;;;29.20;51.90;;;;;;5105031;27;43226;-80
2023/06/27 09:38:36;;;;;;;;;;;29.20;51.70;;;;;;5104190;27;42919;-78
2023/06/27 09:41:05;;;;;;;;;;;29.20;51.00;;;;;;5100388;27;43042;-80
2023/06/27 09:43:38;;;;;;;;;;;29.20;51.00;;;;;;5104969;27;43410;-79
2023/06/27 09:46:04;;;;;;;;;;;29.20;51.10;;;;;;5103512;27;42968;-79
2023/06/27 09:48:29;;;;;;;;;;;29.20;50.40;;;;;;5103303;27;43668;-81
2023/06/27 09:51:03;;;;;;;;;;;29.20;50.30;;;;;;5101063;27;42964;-78
2023/06/27 09:53:30;;;;;;;;;;;29.20;50.20;;;;;;5091617;27;43848;-80
2023/06/27 09:55:56;;;;;;;;;;;29.20;50.20;;;;;;5102203;27;43097;-79
2023/06/27 09:58:40;;;;;;;;;;;29.10;50.10;;;;;;5106670;27;42979;-79
2023/06/27 10:01:06;;;;;;;;;;;29.20;50.20;;;;;;5096244;27;42870;-79
2023/06/27 10:03:35;;;;;;;;;;;29.30;50.10;;;;;;5117760;27;43330;-79
2023/06/27 10:06:01;;;;;;;;;;;29.30;50.10;;;;;;5108609;27;42961;-79
2023/06/27 10:08:27;;;;;;;;;;;29.20;50.00;;;;;;5099992;27;44272;-78
2023/06/27 10:10:57;;;;;;;;;;;29.30;49.70;;;;;;5109777;27;43008;-79
2023/06/27 10:13:24;;;;;;;;;;;29.20;49.80;;;;;;5111809;27;44523;-79
2023/06/27 10:15:49;;;;;;;;;;;29.20;49.70;;;;;;5097851;27;43000;-82
2023/06/27 10:18:15;;;;;;;;;;;29.30;49.90;;;;;;5108224;27;43705;-80
2023/06/27 10:20:40;;;;;;;;;;;29.20;49.80;;;;;;5106398;27;43619;-81
2023/06/27 10:23:06;;;;;;;;;;;29.30;50.00;;;;;;5108452;27;43200;-81
2023/06/27 10:25:32;;;;;;;;;;;29.30;50.00;;;;;;5107381;27;42975;-80
2023/06/27 10:28:07;;;;;;;;;;;29.30;50.60;;;;;;5108604;27;43600;-82
2023/06/27 10:30:37;;;;;;;;;;;29.30;50.20;;;;;;5103329;27;43213;-82
2023/06/27 10:33:09;;;;;;;;;;;29.30;50.20;;;;;;5105567;27;43371;-81
2023/06/27 10:35:38;;;;;;;;;;;29.30;50.20;;;;;;5113918;27;42971;-81
2023/06/27 10:38:32;;;;;;;;;;;29.30;50.30;;;;;;5112915;27;43702;-81
2023/06/27 10:41:09;;;;;;;;;;;29.30;50.40;;;;;;5107242;27;43110;-82
2023/06/27 10:43:38;;;;;;;;;;;29.20;50.20;;;;;;5112887;27;42981;-80
2023/06/27 10:46:04;;;;;;;;;;;29.30;50.70;;;;;;5112373;27;43170;-81
2023/06/27 10:48:32;;;;;;;;;;;29.30;50.50;;;;;;5106312;27;43627;-82
2023/06/27 10:51:17;;;;;;;;;;;29.30;50.70;;;;;;5106009;27;43012;-81
2023/06/27 10:53:46;;;;;;;;;;;29.30;50.90;;;;;;5116537;27;44322;-81
2023/06/27 10:56:12;;;;;;;;;;;;;;;;;;5108327;27;43021;-82
2023/06/27 10:58:44;;;;;;;;;;;29.30;51.20;;;;;;5103535;27;43615;-82
2023/06/27 11:01:11;;;;;;;;;;;27.40;50.10;;;;;;5101594;27;42834;-79
2023/06/27 11:03:38;;;;;;;;;;;29.40;51.50;;;;;;5100463;27;42908;-80
2023/06/27 11:06:04;;;;;;;;;;;29.30;51.50;;;;;;5103248;27;43058;-81
2023/06/27 11:08:30;;;;;;;;;;;29.40;51.90;;;;;;5103179;27;43038;-82
2023/06/27 11:11:07;;;;;;;;;;;29.30;51.90;;;;;;5112874;27;43187;-81
2023/06/27 11:13:33;;;;;;;;;;;29.30;51.70;;;;;;5106708;27;42889;-81
2023/06/27 11:15:59;;;;;;;;;;;29.30;51.40;;;;;;5104280;27;42972;-80
2023/06/27 11:18:25;;;;;;;;;;;29.40;51.30;;;;;;5109044;27;43579;-80
2023/06/27 11:20:51;;;;;;;;;;;29.30;51.80;;;;;;5106006;27;43199;-80
2023/06/27 11:23:18;;;;;;;;;;;29.40;51.80;;;;;;5096078;27;43028;-80
2023/06/27 11:25:45;;;;;;;;;;;29.30;51.70;;;;;;5103066;27;42905;-80
2023/06/27 11:28:11;;;;;;;;;;;29.30;51.50;;;;;;5103447;27;42991;-82
2023/06/27 11:30:38;;;;;;;;;;;29.40;51.30;;;;;;5103716;27;43127;-81
2023/06/27 11:33:03;;;;;;;;;;;29.30;51.20;;;;;;5102902;27;43336;-80
2023/06/27 11:35:30;;;;;;;;;;;29.40;51.20;;;;;;5104242;27;42966;-79
2023/06/27 11:37:56;;;;;;;;;;;29.40;51.00;;;;;;5097217;27;42888;-80
2023/06/27 11:40:23;;;;;;;;;;;29.40;51.00;;;;;;5101003;27;43044;-81
2023/06/27 11:42:48;;;;;;;;;;;29.40;51.40;;;;;;5097400;27;43474;-79
2023/06/27 11:45:14;;;;;;;;;;;29.40;50.40;;;;;;5104433;27;42991;-79
2023/06/27 11:47:40;;;;;;;;;;;29.40;50.20;;;;;;5103934;27;42996;-78
2023/06/27 11:50:09;;;;;;;;;;;29.40;50.60;;;;;;5107270;27;43711;-79
2023/06/27 11:52:35;;;;;;;;;;;29.40;50.10;;;;;;5106337;27;43007;-80
2023/06/27 11:55:02;;;;;;;;;;;29.40;49.80;;;;;;5106371;27;42942;-80
2023/06/27 11:57:40;;;;;;;;;;;29.40;49.80;;;;;;5106269;27;43131;-80
2023/06/27 12:00:07;;;;;;;;;;;29.30;49.70;;;;;;5104990;27;43384;-79
2023/06/27 12:02:33;;;;;;;;;;;29.40;50.20;;;;;;5106118;27;43021;-80
2023/06/27 12:04:58;;;;;;;;;;;29.40;49.70;;;;;;5106868;27;42873;-79
2023/06/27 12:07:25;;;;;;;;;;;29.40;50.30;;;;;;5095049;27;42911;-79
2023/06/27 12:10:03;;;;;;;;;;;29.40;49.60;;;;;;5105854;27;43081;-79
2023/06/27 12:12:33;;;;;;;;;;;29.40;50.00;;;;;;5107256;27;42960;-79
2023/06/27 12:15:09;;;;;;;;;;;29.40;49.70;;;;;;5106735;27;43143;-79
2023/06/27 12:17:34;;;;;;;;;;;29.30;48.80;;;;;;5105877;27;43071;-79
2023/06/27 12:20:02;;;;;;;;;;;29.30;48.70;;;;;;5106555;27;43486;-78
2023/06/27 12:22:27;;;;;;;;;;;29.40;48.80;;;;;;5106880;27;43110;-80
2023/06/27 12:24:53;;;;;;;;;;;29.30;48.70;;;;;;5104246;27;43408;-79
2023/06/27 12:27:18;;;;;;;;;;;29.30;48.80;;;;;;5092851;27;43448;-79
2023/06/27 12:29:44;;;;;;;;;;;29.40;49.40;;;;;;5103774;27;43408;-79
2023/06/27 12:32:09;;;;;;;;;;;29.40;49.30;;;;;;5094322;27;43504;-79
2023/06/27 12:34:35;;;;;;;;;;;29.40;48.90;;;;;;5100952;27;43110;-79
2023/06/27 12:37:00;;;;;;;;;;;29.30;48.90;;;;;;5103337;27;43053;-79
2023/06/27 12:39:26;;;;;;;;;;;29.30;48.90;;;;;;5100377;27;43210;-79
2023/06/27 12:41:51;;;;;;;;;;;29.40;49.10;;;;;;5092940;27;43058;-79
2023/06/27 12:44:17;;;;;;;;;;;29.40;49.60;;;;;;5103384;27;43701;-79
2023/06/27 12:46:44;;;;;;;;;;;29.40;49.60;;;;;;5101535;27;43146;-79
2023/06/27 12:49:10;;;;;;;;;;;29.40;49.00;;;;;;5103674;27;43017;-79
2023/06/27 12:51:35;;;;;;;;;;;29.50;49.00;;;;;;5104169;27;43335;-78
2023/06/27 12:54:01;;;;;;;;;;;29.50;49.50;;;;;;5104094;27;42905;-79
2023/06/27 12:56:26;;;;;;;;;;;29.40;48.90;;;;;;5104397;27;43686;-79
2023/06/27 12:58:53;;;;;;;;;;;29.40;48.90;;;;;;5103915;27;42910;-79
2023/06/27 13:01:23;;;;;;;;;;;29.40;48.90;;;;;;5103941;27;43979;-80
2023/06/27 13:03:49;;;;;;;;;;;29.40;48.90;;;;;;5104996;27;42907;-79
2023/06/27 13:06:14;;;;;;;;;;;29.50;49.30;;;;;;5104627;27;42961;-79
2023/06/27 13:08:40;;;;;;;;;;;29.50;49.30;;;;;;5104967;27;42945;-80
2023/06/27 13:11:05;;;;;;;;;;;29.50;49.20;;;;;;5105298;27;43056;-79
2023/06/27 13:13:33;;;;;;;;;;;29.50;48.60;;;;;;5105087;27;42979;-79
2023/06/27 13:15:59;;;;;;;;;;;29.40;48.90;;;;;;5105308;27;43505;-79
2023/06/27 13:18:24;;;;;;;;;;;29.50;48.30;;;;;;5104705;27;43080;-79
2023/06/27 13:20:51;;;;;;;;;;;29.40;48.80;;;;;;5105758;27;42953;-79
2023/06/27 13:23:17;;;;;;;;;;;29.40;48.70;;;;;;5105616;27;42931;-79
2023/06/27 13:25:44;;;;;;;;;;;29.40;48.60;;;;;;5105918;27;42960;-78
2023/06/27 13:28:09;;;;;;;;;;;29.40;48.10;;;;;;5105836;27;42968;-79
2023/06/27 13:30:35;;;;;;;;;;;29.50;48.70;;;;;;5105739;27;43560;-79
2023/06/27 13:33:00;;;;;;;;;;;29.50;48.20;;;;;;5104269;27;43036;-79
2023/06/27 13:35:27;;;;;;;;;;;29.40;48.00;;;;;;5103815;27;45132;-79
2023/06/27 13:37:53;;;;;;;;;;;29.40;47.90;;;;;;5103941;27;43031;-78
2023/06/27 13:40:19;;;;;;;;;;;29.50;48.00;;;;;;5103483;27;43815;-79
2023/06/27 13:42:45;;;;;;;;;;;29.50;48.30;;;;;;5105219;27;42874;-79
2023/06/27 13:45:10;;;;;;;;;;;29.40;47.70;;;;;;5105444;27;43696;-79
2023/06/27 13:47:36;;;;;;;;;;;29.50;47.80;;;;;;5104729;27;42944;-79
2023/06/27 13:50:02;;;;;;;;;;;29.50;47.80;;;;;;5138580;27;44351;-79
2023/06/27 13:52:28;;;;;;;;;;;29.50;47.70;;;;;;5104944;27;42957;-78
2023/06/27 13:54:54;;;;;;;;;;;29.50;47.80;;;;;;5104182;27;42908;-79
2023/06/27 13:57:20;;;;;;;;;;;29.50;47.70;;;;;;5103403;27;42877;-79
2023/06/27 13:59:45;;;;;;;;;;;29.40;47.70;;;;;;5094427;27;43139;-79
2023/06/27 14:02:11;;;;;;;;;;;29.50;47.90;;;;;;5101406;27;42961;-79
2023/06/27 14:04:38;;;;;;;;;;;29.50;48.00;;;;;;5104846;27;43102;-79
2023/06/27 14:07:04;;;;;;;;;;;29.50;48.00;;;;;;5104601;27;43081;-79
2023/06/27 14:09:29;;;;;;;;;;;29.50;48.10;;;;;;5104540;27;43439;-78
2023/06/27 14:11:55;;;;;;;;;;;29.50;48.00;;;;;;5104331;27;43437;-79
2023/06/27 14:14:21;;;;;;;;;;;29.50;48.00;;;;;;5102839;27;44457;-79
2023/06/27 14:16:46;;;;;;;;;;;29.50;48.10;;;;;;5103986;27;42939;-79